CHH7181 ZJHK-ZBAA
Flight info
| Callsign | CHH7181 |
|---|---|
| Flight time | 3h 10m |
| Altitude | 37101 |
| Route | AGTEL W71 LH R339 BHY W159 IVPUB W120 ENKUS H145 JW W2 SJG W102 EMVIL W284 UPSIK W4 VADMO W56 DUGEB |
| Aircraft | A339/H-SDE2E3FGHIJ4J5M1RWXYZ/LB2D1 |
Departure
| Time | 2026-05-07 22:15 |
|---|---|
| Airport | Haikou Meilan International Airport (ZJHK) |
Arrival
| Time | 2026-05-08 01:26 |
|---|---|
| Airport | Beijing Capital International Airport (ZBAA) |
| Time | Latitude | Longitude | Altitude | Speed | Heading |
|---|---|---|---|---|---|
| 2026-05-07 21:42 | 19.93972 | 110.46013 | 82 ft | 0 kts | 38° |
| 2026-05-07 22:01 | 19.93971 | 110.46012 | 87 ft | 2 kts | 38° |
| 2026-05-07 22:02 | 19.93951 | 110.45995 | 84 ft | 4 kts | 40° |
| 2026-05-07 22:02 | 19.93934 | 110.45980 | 87 ft | 2 kts | 39° |
| 2026-05-07 22:02 | 19.93914 | 110.45963 | 87 ft | 4 kts | 46° |
| 2026-05-07 22:02 | 19.93899 | 110.45945 | 87 ft | 4 kts | 64° |
| 2026-05-07 22:03 | 19.93894 | 110.45918 | 86 ft | 4 kts | 95° |
| 2026-05-07 22:03 | 19.93896 | 110.45897 | 86 ft | 0 kts | 90° |
| 2026-05-07 22:06 | 19.93896 | 110.45898 | 87 ft | 1 kts | 90° |
| 2026-05-07 22:06 | 19.93896 | 110.45915 | 86 ft | 4 kts | 90° |
| 2026-05-07 22:06 | 19.93895 | 110.45941 | 87 ft | 0 kts | 91° |
| 2026-05-07 22:07 | 19.93895 | 110.45945 | 56 ft | 1 kts | 91° |
| 2026-05-07 22:07 | 19.93882 | 110.45962 | 85 ft | 5 kts | 134° |
| 2026-05-07 22:07 | 19.93845 | 110.45969 | 86 ft | 6 kts | 174° |
| 2026-05-07 22:08 | 19.93783 | 110.45973 | 88 ft | 11 kts | 180° |
| 2026-05-07 22:08 | 19.93738 | 110.45942 | 90 ft | 6 kts | 258° |
| 2026-05-07 22:08 | 19.93731 | 110.45880 | 85 ft | 13 kts | 268° |
| 2026-05-07 22:08 | 19.93731 | 110.45754 | 85 ft | 19 kts | 270° |
| 2026-05-07 22:09 | 19.93731 | 110.45610 | 87 ft | 20 kts | 270° |
| 2026-05-07 22:09 | 19.93730 | 110.45467 | 88 ft | 20 kts | 269° |
| 2026-05-07 22:09 | 19.93729 | 110.45320 | 86 ft | 20 kts | 270° |
| 2026-05-07 22:09 | 19.93729 | 110.45171 | 87 ft | 20 kts | 270° |
| 2026-05-07 22:10 | 19.93729 | 110.45054 | 87 ft | 5 kts | 270° |
| 2026-05-07 22:10 | 19.93733 | 110.44994 | 88 ft | 11 kts | 287° |
| 2026-05-07 22:10 | 19.93795 | 110.44988 | 90 ft | 14 kts | 6° |
| 2026-05-07 22:10 | 19.93930 | 110.44988 | 89 ft | 23 kts | 360° |
| 2026-05-07 22:11 | 19.94094 | 110.44988 | 84 ft | 24 kts | 0° |
| 2026-05-07 22:11 | 19.94270 | 110.44989 | 71 ft | 26 kts | 0° |
| 2026-05-07 22:11 | 19.94455 | 110.44987 | 64 ft | 23 kts | 358° |
| 2026-05-07 22:11 | 19.94557 | 110.44985 | 64 ft | 15 kts | 359° |
| 2026-05-07 22:12 | 19.94672 | 110.44984 | 59 ft | 18 kts | 0° |
| 2026-05-07 22:12 | 19.94808 | 110.44985 | 58 ft | 20 kts | 0° |
| 2026-05-07 22:12 | 19.94879 | 110.44985 | 53 ft | 2 kts | 359° |
| 2026-05-07 22:12 | 19.94931 | 110.44981 | 55 ft | 10 kts | 348° |
| 2026-05-07 22:13 | 19.94995 | 110.44928 | 53 ft | 15 kts | 314° |
| 2026-05-07 22:13 | 19.95051 | 110.44865 | 52 ft | 1 kts | 313° |
| 2026-05-07 22:13 | 19.95084 | 110.44833 | 59 ft | 10 kts | 323° |
| 2026-05-07 22:13 | 19.95160 | 110.44821 | 50 ft | 12 kts | 360° |
| 2026-05-07 22:14 | 19.95250 | 110.44820 | 52 ft | 14 kts | 0° |
| 2026-05-07 22:14 | 19.95333 | 110.44835 | 52 ft | 0 kts | 30° |
| 2026-05-07 22:14 | 19.95359 | 110.44867 | 47 ft | 10 kts | 57° |
| 2026-05-07 22:14 | 19.95372 | 110.44944 | 57 ft | 10 kts | 88° |
| 2026-05-07 22:15 | 19.95372 | 110.45031 | 58 ft | 25 kts | 90° |
| 2026-05-07 22:15 | 19.95374 | 110.45535 | 63 ft | 109 kts | 90° |
| 2026-05-07 22:15 | 19.95379 | 110.46596 | 88 ft | 172 kts | 90° |
| 2026-05-07 22:15 | 19.95392 | 110.47882 | 800 ft | 174 kts | 90° |
| 2026-05-07 22:16 | 19.95428 | 110.49125 | 1328 ft | 162 kts | 85° |
| 2026-05-07 22:16 | 19.95665 | 110.50287 | 1628 ft | 163 kts | 75° |
| 2026-05-07 22:16 | 19.96328 | 110.51376 | 1936 ft | 191 kts | 40° |
| 2026-05-07 22:16 | 19.97613 | 110.51944 | 2349 ft | 212 kts | 5° |
| 2026-05-07 22:17 | 19.99058 | 110.51678 | 2835 ft | 218 kts | 334° |
| 2026-05-07 22:17 | 20.00392 | 110.50820 | 3343 ft | 231 kts | 324° |
| 2026-05-07 22:17 | 20.01764 | 110.49814 | 3837 ft | 242 kts | 326° |
| 2026-05-07 22:17 | 20.03229 | 110.48865 | 4337 ft | 250 kts | 330° |
| 2026-05-07 22:18 | 20.04756 | 110.48009 | 4806 ft | 252 kts | 333° |
| 2026-05-07 22:18 | 20.07935 | 110.46410 | 6057 ft | 251 kts | 335° |
| 2026-05-07 22:18 | 20.09535 | 110.45628 | 6655 ft | 254 kts | 335° |
| 2026-05-07 22:19 | 20.11156 | 110.44834 | 7204 ft | 258 kts | 335° |
| 2026-05-07 22:19 | 20.12789 | 110.44029 | 7797 ft | 260 kts | 334° |
| 2026-05-07 22:19 | 20.14435 | 110.43213 | 8357 ft | 263 kts | 334° |
| 2026-05-07 22:19 | 20.16102 | 110.42385 | 8934 ft | 265 kts | 334° |
| 2026-05-07 22:20 | 20.17782 | 110.41550 | 9512 ft | 268 kts | 334° |
| 2026-05-07 22:20 | 20.19476 | 110.40707 | 10068 ft | 271 kts | 334° |
| 2026-05-07 22:20 | 20.21195 | 110.39850 | 10578 ft | 273 kts | 334° |
| 2026-05-07 22:20 | 20.22922 | 110.38989 | 11117 ft | 275 kts | 334° |
| 2026-05-07 22:21 | 20.24664 | 110.38120 | 11653 ft | 278 kts | 333° |
| 2026-05-07 22:21 | 20.26472 | 110.37367 | 12189 ft | 281 kts | 341° |
| 2026-05-07 22:21 | 20.28353 | 110.36745 | 12720 ft | 284 kts | 341° |
| 2026-05-07 22:21 | 20.30249 | 110.36109 | 13245 ft | 287 kts | 341° |
| 2026-05-07 22:22 | 20.32176 | 110.35453 | 13637 ft | 297 kts | 340° |
| 2026-05-07 22:22 | 20.34179 | 110.34764 | 13790 ft | 314 kts | 340° |
| 2026-05-07 22:22 | 20.36309 | 110.34029 | 13926 ft | 330 kts | 340° |
| 2026-05-07 22:22 | 20.38550 | 110.33257 | 14059 ft | 345 kts | 340° |
| 2026-05-07 22:23 | 20.40891 | 110.32453 | 14184 ft | 359 kts | 341° |
| 2026-05-07 22:23 | 20.43294 | 110.31628 | 14445 ft | 367 kts | 341° |
| 2026-05-07 22:23 | 20.45735 | 110.30790 | 14891 ft | 369 kts | 341° |
| 2026-05-07 22:23 | 20.48202 | 110.30087 | 15309 ft | 373 kts | 348° |
| 2026-05-07 22:24 | 20.50806 | 110.29703 | 15744 ft | 375 kts | 354° |
| 2026-05-07 22:24 | 20.53426 | 110.29583 | 16165 ft | 378 kts | 359° |
| 2026-05-07 22:24 | 20.56037 | 110.29690 | 16576 ft | 381 kts | 3° |
| 2026-05-07 22:24 | 20.58648 | 110.29898 | 17090 ft | 363 kts | 2° |
| 2026-05-07 22:25 | 20.61047 | 110.30062 | 17294 ft | 332 kts | 3° |
| 2026-05-07 22:25 | 20.63283 | 110.30323 | 17244 ft | 321 kts | 6° |
| 2026-05-07 22:25 | 20.65582 | 110.30702 | 16824 ft | 352 kts | 8° |
| 2026-05-07 22:25 | 20.68101 | 110.30915 | 16809 ft | 369 kts | 0° |
| 2026-05-07 22:26 | 20.70715 | 110.30938 | 16920 ft | 380 kts | 359° |
| 2026-05-07 22:26 | 20.73379 | 110.30977 | 17259 ft | 385 kts | 0° |
| 2026-05-07 22:26 | 20.76056 | 110.31074 | 17688 ft | 386 kts | 1° |
| 2026-05-07 22:26 | 20.78757 | 110.31217 | 18108 ft | 389 kts | 2° |
| 2026-05-07 22:27 | 20.81465 | 110.31385 | 18477 ft | 391 kts | 2° |
| 2026-05-07 22:27 | 20.84154 | 110.31562 | 18836 ft | 393 kts | 2° |
| 2026-05-07 22:27 | 20.86890 | 110.31744 | 19191 ft | 395 kts | 2° |
| 2026-05-07 22:27 | 20.89644 | 110.31928 | 19552 ft | 397 kts | 2° |
| 2026-05-07 22:28 | 20.92414 | 110.32111 | 19904 ft | 399 kts | 2° |
| 2026-05-07 22:28 | 20.95199 | 110.32294 | 20279 ft | 402 kts | 2° |
| 2026-05-07 22:28 | 20.97996 | 110.32479 | 20647 ft | 404 kts | 2° |
| 2026-05-07 22:28 | 21.00807 | 110.32660 | 21025 ft | 406 kts | 2° |
| 2026-05-07 22:29 | 21.03642 | 110.32817 | 21384 ft | 408 kts | 1° |
| 2026-05-07 22:29 | 21.06454 | 110.32963 | 21750 ft | 411 kts | 1° |
| 2026-05-07 22:29 | 21.09310 | 110.32803 | 22082 ft | 412 kts | 348° |
| 2026-05-07 22:29 | 21.12062 | 110.31866 | 22473 ft | 412 kts | 333° |
| 2026-05-07 22:30 | 21.14451 | 110.30253 | 22824 ft | 412 kts | 319° |
| 2026-05-07 22:30 | 21.16415 | 110.28021 | 23207 ft | 413 kts | 305° |
| 2026-05-07 22:30 | 21.17866 | 110.25366 | 23564 ft | 414 kts | 296° |
| 2026-05-07 22:30 | 21.19148 | 110.22589 | 23878 ft | 416 kts | 295° |
| 2026-05-07 22:31 | 21.20431 | 110.19804 | 24209 ft | 418 kts | 296° |
| 2026-05-07 22:31 | 21.21765 | 110.17010 | 24510 ft | 421 kts | 297° |
| 2026-05-07 22:31 | 21.23130 | 110.14231 | 24847 ft | 422 kts | 297° |
| 2026-05-07 22:31 | 21.24518 | 110.11451 | 25228 ft | 422 kts | 298° |
| 2026-05-07 22:32 | 21.25915 | 110.08670 | 25550 ft | 424 kts | 298° |
| 2026-05-07 22:32 | 21.27320 | 110.05880 | 25845 ft | 427 kts | 298° |
| 2026-05-07 22:32 | 21.28731 | 110.03077 | 26161 ft | 428 kts | 298° |
| 2026-05-07 22:32 | 21.30150 | 110.00252 | 26472 ft | 430 kts | 298° |
| 2026-05-07 22:33 | 21.31572 | 109.97422 | 26770 ft | 432 kts | 298° |
| 2026-05-07 22:33 | 21.32999 | 109.94576 | 27073 ft | 434 kts | 298° |
| 2026-05-07 22:33 | 21.34413 | 109.91756 | 27362 ft | 436 kts | 298° |
| 2026-05-07 22:33 | 21.35854 | 109.88882 | 27664 ft | 438 kts | 298° |
| 2026-05-07 22:34 | 21.37299 | 109.85996 | 27947 ft | 440 kts | 298° |
| 2026-05-07 22:34 | 21.38749 | 109.83101 | 28224 ft | 442 kts | 298° |
| 2026-05-07 22:34 | 21.40210 | 109.80181 | 28513 ft | 443 kts | 298° |
| 2026-05-07 22:34 | 21.41671 | 109.77260 | 28837 ft | 444 kts | 298° |
| 2026-05-07 22:35 | 21.43135 | 109.74333 | 29120 ft | 446 kts | 298° |
| 2026-05-07 22:35 | 21.44587 | 109.71426 | 29382 ft | 448 kts | 298° |
| 2026-05-07 22:35 | 21.46063 | 109.68471 | 29649 ft | 450 kts | 298° |
| 2026-05-07 22:35 | 21.47546 | 109.65500 | 29931 ft | 452 kts | 298° |
| 2026-05-07 22:36 | 21.49035 | 109.62514 | 30186 ft | 454 kts | 298° |
| 2026-05-07 22:36 | 21.50528 | 109.59519 | 30439 ft | 455 kts | 298° |
| 2026-05-07 22:36 | 21.52025 | 109.56515 | 30694 ft | 457 kts | 298° |
| 2026-05-07 22:36 | 21.53527 | 109.53497 | 30957 ft | 459 kts | 298° |
| 2026-05-07 22:37 | 21.55040 | 109.50478 | 31214 ft | 460 kts | 300° |
| 2026-05-07 22:37 | 21.56895 | 109.47672 | 31448 ft | 461 kts | 311° |
| 2026-05-07 22:37 | 21.59244 | 109.45325 | 31684 ft | 463 kts | 322° |
| 2026-05-07 22:37 | 21.62014 | 109.43509 | 31840 ft | 468 kts | 334° |
| 2026-05-07 22:38 | 21.65082 | 109.42329 | 32070 ft | 472 kts | 345° |
| 2026-05-07 22:38 | 21.68344 | 109.41777 | 32303 ft | 475 kts | 352° |
| 2026-05-07 22:38 | 21.71633 | 109.41406 | 32488 ft | 477 kts | 352° |
| 2026-05-07 22:38 | 21.74945 | 109.41028 | 32674 ft | 479 kts | 352° |
| 2026-05-07 22:39 | 21.78252 | 109.40630 | 32836 ft | 480 kts | 352° |
| 2026-05-07 22:39 | 21.81541 | 109.40218 | 32989 ft | 481 kts | 352° |
| 2026-05-07 22:39 | 21.84866 | 109.39791 | 33121 ft | 482 kts | 352° |
| 2026-05-07 22:39 | 21.88208 | 109.39359 | 33246 ft | 483 kts | 352° |
| 2026-05-07 22:40 | 21.91557 | 109.38924 | 33351 ft | 484 kts | 352° |
| 2026-05-07 22:40 | 21.98279 | 109.38055 | 33495 ft | 488 kts | 351° |
| 2026-05-07 22:40 | 22.01653 | 109.37615 | 33631 ft | 488 kts | 351° |
| 2026-05-07 22:41 | 22.05020 | 109.37177 | 33774 ft | 488 kts | 351° |
| 2026-05-07 22:41 | 22.08389 | 109.36739 | 33913 ft | 487 kts | 351° |
| 2026-05-07 22:41 | 22.11758 | 109.36301 | 34051 ft | 487 kts | 351° |
| 2026-05-07 22:41 | 22.15137 | 109.35861 | 34192 ft | 487 kts | 351° |
| 2026-05-07 22:42 | 22.18499 | 109.35424 | 34335 ft | 486 kts | 351° |
| 2026-05-07 22:42 | 22.21807 | 109.34993 | 34461 ft | 486 kts | 351° |
| 2026-05-07 22:42 | 22.25220 | 109.34604 | 34592 ft | 487 kts | 353° |
| 2026-05-07 22:42 | 22.28570 | 109.34577 | 34727 ft | 490 kts | 359° |
| 2026-05-07 22:43 | 22.31979 | 109.34938 | 34869 ft | 492 kts | 5° |
| 2026-05-07 22:43 | 22.35351 | 109.35607 | 34994 ft | 493 kts | 7° |
| 2026-05-07 22:43 | 22.38725 | 109.36280 | 35110 ft | 493 kts | 7° |
| 2026-05-07 22:43 | 22.42104 | 109.36940 | 35247 ft | 492 kts | 7° |
| 2026-05-07 22:44 | 22.45471 | 109.37597 | 35375 ft | 492 kts | 7° |
| 2026-05-07 22:44 | 22.48854 | 109.38258 | 35521 ft | 492 kts | 7° |
| 2026-05-07 22:44 | 22.52225 | 109.38919 | 35669 ft | 492 kts | 7° |
| 2026-05-07 22:44 | 22.54457 | 109.39358 | 35776 ft | 491 kts | 6° |
| 2026-05-07 22:45 | 22.58953 | 109.40244 | 36007 ft | 490 kts | 6° |
| 2026-05-07 22:45 | 22.62266 | 109.40896 | 36182 ft | 490 kts | 6° |
| 2026-05-07 22:45 | 22.65621 | 109.41556 | 36307 ft | 490 kts | 6° |
| 2026-05-07 22:45 | 22.68975 | 109.42217 | 36473 ft | 489 kts | 6° |
| 2026-05-07 22:46 | 22.71198 | 109.42656 | 36585 ft | 489 kts | 6° |
| 2026-05-07 22:46 | 22.75678 | 109.43540 | 36786 ft | 489 kts | 6° |
| 2026-05-07 22:46 | 22.77889 | 109.43977 | 36886 ft | 489 kts | 6° |
| 2026-05-07 22:46 | 22.81243 | 109.44640 | 37029 ft | 488 kts | 6° |
| 2026-05-07 22:47 | 22.84587 | 109.45302 | 37085 ft | 488 kts | 6° |
| 2026-05-07 22:47 | 22.91241 | 109.46619 | 37082 ft | 485 kts | 6° |
| 2026-05-07 22:48 | 22.97903 | 109.47938 | 37081 ft | 486 kts | 6° |
| 2026-05-07 22:48 | 23.04509 | 109.49248 | 37089 ft | 486 kts | 6° |
| 2026-05-07 22:49 | 23.11203 | 109.50576 | 37087 ft | 486 kts | 6° |
| 2026-05-07 22:49 | 23.17817 | 109.51891 | 37093 ft | 485 kts | 5° |
| 2026-05-07 22:50 | 23.24471 | 109.53213 | 37084 ft | 485 kts | 5° |
| 2026-05-07 22:50 | 23.31113 | 109.54536 | 37091 ft | 484 kts | 5° |
| 2026-05-07 22:51 | 23.37756 | 109.55860 | 37092 ft | 486 kts | 5° |
| 2026-05-07 22:51 | 23.44403 | 109.57187 | 37106 ft | 485 kts | 5° |
| 2026-05-07 22:52 | 23.50992 | 109.58503 | 37096 ft | 485 kts | 5° |
| 2026-05-07 22:52 | 23.57638 | 109.59831 | 37097 ft | 485 kts | 5° |
| 2026-05-07 22:53 | 23.64283 | 109.61161 | 37095 ft | 485 kts | 5° |
| 2026-05-07 22:53 | 23.70935 | 109.62493 | 37093 ft | 485 kts | 5° |
| 2026-05-07 22:54 | 23.77586 | 109.63824 | 37097 ft | 486 kts | 4° |
| 2026-05-07 22:54 | 23.84250 | 109.65160 | 37104 ft | 487 kts | 4° |
| 2026-05-07 22:55 | 23.90915 | 109.66498 | 37102 ft | 487 kts | 4° |
| 2026-05-07 22:55 | 23.97586 | 109.67840 | 37111 ft | 487 kts | 4° |
| 2026-05-07 22:56 | 24.04260 | 109.69182 | 37113 ft | 487 kts | 4° |
| 2026-05-07 22:56 | 24.10888 | 109.70518 | 37113 ft | 487 kts | 4° |
| 2026-05-07 22:57 | 24.17565 | 109.71865 | 37112 ft | 487 kts | 4° |
| 2026-05-07 22:57 | 24.24227 | 109.73209 | 37115 ft | 487 kts | 4° |
| 2026-05-07 22:58 | 24.30901 | 109.74558 | 37113 ft | 487 kts | 4° |
| 2026-05-07 22:58 | 24.37557 | 109.75905 | 37116 ft | 487 kts | 4° |
| 2026-05-07 22:59 | 24.44232 | 109.77255 | 37119 ft | 487 kts | 4° |
| 2026-05-07 22:59 | 24.50895 | 109.78605 | 37118 ft | 487 kts | 4° |
| 2026-05-07 23:00 | 24.57564 | 109.79959 | 37135 ft | 487 kts | 4° |
| 2026-05-07 23:00 | 24.64167 | 109.81377 | 37129 ft | 487 kts | 8° |
| 2026-05-07 23:01 | 24.70644 | 109.83858 | 37136 ft | 497 kts | 18° |
| 2026-05-07 23:01 | 24.76794 | 109.87403 | 37137 ft | 501 kts | 22° |
| 2026-05-07 23:02 | 24.82927 | 109.91029 | 37144 ft | 501 kts | 22° |
| 2026-05-07 23:02 | 24.89078 | 109.94672 | 37163 ft | 501 kts | 22° |
| 2026-05-07 23:03 | 24.95211 | 109.98315 | 37151 ft | 500 kts | 22° |
| 2026-05-07 23:03 | 25.01585 | 110.01142 | 37150 ft | 490 kts | 9° |
| 2026-05-07 23:04 | 25.08165 | 110.02477 | 37151 ft | 479 kts | 358° |
| 2026-05-07 23:04 | 25.14812 | 110.03176 | 37147 ft | 480 kts | 359° |
| 2026-05-07 23:05 | 25.21457 | 110.03911 | 37150 ft | 480 kts | 359° |
| 2026-05-07 23:05 | 25.28105 | 110.04641 | 37150 ft | 480 kts | 359° |
| 2026-05-07 23:06 | 25.34718 | 110.04903 | 37172 ft | 468 kts | 347° |
| 2026-05-07 23:06 | 25.40863 | 110.03016 | 37172 ft | 452 kts | 329° |
| 2026-05-07 23:07 | 25.46024 | 109.99242 | 37175 ft | 439 kts | 313° |
| 2026-05-07 23:07 | 25.50154 | 109.94344 | 37199 ft | 435 kts | 308° |
| 2026-05-07 23:08 | 25.54250 | 109.89392 | 37177 ft | 435 kts | 308° |
| 2026-05-07 23:08 | 25.58307 | 109.84491 | 37195 ft | 435 kts | 308° |
| 2026-05-07 23:09 | 25.62394 | 109.79542 | 37181 ft | 435 kts | 308° |
| 2026-05-07 23:09 | 25.66480 | 109.74594 | 37168 ft | 435 kts | 308° |
| 2026-05-07 23:10 | 25.70561 | 109.69638 | 37179 ft | 435 kts | 308° |
| 2026-05-07 23:10 | 25.75089 | 109.65112 | 37209 ft | 445 kts | 321° |
| 2026-05-07 23:11 | 25.80803 | 109.62248 | 37235 ft | 461 kts | 338° |
| 2026-05-07 23:11 | 25.87295 | 109.61493 | 37216 ft | 480 kts | 356° |
| 2026-05-07 23:12 | 25.93968 | 109.61916 | 37218 ft | 480 kts | 356° |
| 2026-05-07 23:12 | 26.00647 | 109.62295 | 37226 ft | 480 kts | 356° |
| 2026-05-07 23:13 | 26.07278 | 109.62666 | 37224 ft | 480 kts | 356° |
| 2026-05-07 23:13 | 26.13956 | 109.63043 | 37233 ft | 480 kts | 355° |
| 2026-05-07 23:14 | 26.20632 | 109.63420 | 37232 ft | 480 kts | 355° |
| 2026-05-07 23:14 | 26.27313 | 109.63797 | 37236 ft | 480 kts | 355° |
| 2026-05-07 23:15 | 26.33988 | 109.64175 | 37243 ft | 480 kts | 355° |
| 2026-05-07 23:15 | 26.40617 | 109.64557 | 37248 ft | 480 kts | 355° |
| 2026-05-07 23:16 | 26.47275 | 109.64957 | 37239 ft | 479 kts | 355° |
| 2026-05-07 23:16 | 26.53934 | 109.65355 | 37240 ft | 479 kts | 355° |
| 2026-05-07 23:17 | 26.60589 | 109.65751 | 37242 ft | 478 kts | 355° |
| 2026-05-07 23:17 | 26.67256 | 109.66150 | 37256 ft | 479 kts | 355° |
| 2026-05-07 23:18 | 26.73870 | 109.66548 | 37239 ft | 479 kts | 355° |
| 2026-05-07 23:18 | 26.80532 | 109.66947 | 37239 ft | 478 kts | 355° |
| 2026-05-07 23:19 | 26.87187 | 109.67346 | 37243 ft | 478 kts | 355° |
| 2026-05-07 23:19 | 26.93834 | 109.67746 | 37240 ft | 478 kts | 355° |
| 2026-05-07 23:20 | 27.00442 | 109.68143 | 37233 ft | 478 kts | 355° |
| 2026-05-07 23:20 | 27.07088 | 109.68543 | 37239 ft | 478 kts | 355° |
| 2026-05-07 23:21 | 27.13744 | 109.68945 | 37241 ft | 478 kts | 355° |
| 2026-05-07 23:21 | 27.20386 | 109.69346 | 37246 ft | 478 kts | 355° |
| 2026-05-07 23:22 | 27.27047 | 109.69749 | 37258 ft | 479 kts | 354° |
| 2026-05-07 23:22 | 27.33667 | 109.70149 | 37254 ft | 479 kts | 354° |
| 2026-05-07 23:23 | 27.40332 | 109.70552 | 37255 ft | 479 kts | 354° |
| 2026-05-07 23:23 | 27.46978 | 109.70779 | 37254 ft | 472 kts | 349° |
| 2026-05-07 23:24 | 27.53551 | 109.70498 | 37254 ft | 473 kts | 349° |
| 2026-05-07 23:24 | 27.60130 | 109.70247 | 37255 ft | 473 kts | 349° |
| 2026-05-07 23:25 | 27.66701 | 109.70001 | 37257 ft | 472 kts | 349° |
| 2026-05-07 23:25 | 27.73272 | 109.69747 | 37258 ft | 472 kts | 349° |
| 2026-05-07 23:26 | 27.79808 | 109.69487 | 37259 ft | 473 kts | 349° |
| 2026-05-07 23:26 | 27.86395 | 109.69230 | 37271 ft | 473 kts | 349° |
| 2026-05-07 23:27 | 27.96268 | 109.68844 | 37273 ft | 473 kts | 349° |
| 2026-05-07 23:27 | 28.02803 | 109.68591 | 37273 ft | 472 kts | 349° |
| 2026-05-07 23:28 | 28.09381 | 109.68342 | 37301 ft | 472 kts | 349° |
| 2026-05-07 23:28 | 28.15948 | 109.68098 | 37281 ft | 472 kts | 349° |
| 2026-05-07 23:29 | 28.22524 | 109.67853 | 37282 ft | 472 kts | 349° |
| 2026-05-07 23:29 | 28.29045 | 109.67610 | 37290 ft | 471 kts | 349° |
| 2026-05-07 23:30 | 28.35599 | 109.67367 | 37289 ft | 471 kts | 349° |
| 2026-05-07 23:30 | 28.42167 | 109.67117 | 37292 ft | 473 kts | 348° |
| 2026-05-07 23:31 | 28.48760 | 109.66867 | 37280 ft | 474 kts | 348° |
| 2026-05-07 23:31 | 28.55333 | 109.66624 | 37292 ft | 472 kts | 348° |
| 2026-05-07 23:32 | 28.61868 | 109.66380 | 37298 ft | 472 kts | 348° |
| 2026-05-07 23:32 | 28.68478 | 109.66134 | 37301 ft | 472 kts | 348° |
| 2026-05-07 23:33 | 28.75002 | 109.65887 | 37298 ft | 472 kts | 348° |
| 2026-05-07 23:33 | 28.81571 | 109.65637 | 37305 ft | 472 kts | 348° |
| 2026-05-07 23:34 | 28.87034 | 109.65431 | 37304 ft | 472 kts | 348° |
| 2026-05-07 23:34 | 28.93605 | 109.65183 | 37331 ft | 472 kts | 348° |
| 2026-05-07 23:35 | 29.00180 | 109.64934 | 37301 ft | 472 kts | 348° |
| 2026-05-07 23:35 | 29.06739 | 109.64686 | 37306 ft | 471 kts | 348° |
| 2026-05-07 23:36 | 29.13291 | 109.64437 | 37296 ft | 471 kts | 348° |
| 2026-05-07 23:36 | 29.19839 | 109.64185 | 37341 ft | 471 kts | 348° |
| 2026-05-07 23:37 | 29.26388 | 109.63941 | 37321 ft | 469 kts | 347° |
| 2026-05-07 23:37 | 29.32918 | 109.63688 | 37318 ft | 469 kts | 347° |
| 2026-05-07 23:38 | 29.39446 | 109.63439 | 37320 ft | 469 kts | 347° |
| 2026-05-07 23:38 | 29.45966 | 109.63189 | 37319 ft | 469 kts | 347° |
| 2026-05-07 23:39 | 29.52497 | 109.62941 | 37329 ft | 469 kts | 347° |
| 2026-05-07 23:39 | 29.59030 | 109.62696 | 37320 ft | 469 kts | 347° |
| 2026-05-07 23:40 | 29.65513 | 109.62450 | 37319 ft | 469 kts | 347° |
| 2026-05-07 23:40 | 29.72033 | 109.62205 | 37321 ft | 469 kts | 347° |
| 2026-05-07 23:41 | 29.78566 | 109.61957 | 37322 ft | 469 kts | 347° |
| 2026-05-07 23:41 | 29.85086 | 109.61712 | 37332 ft | 468 kts | 347° |
| 2026-05-07 23:42 | 29.91604 | 109.61468 | 37339 ft | 469 kts | 347° |
| 2026-05-07 23:42 | 29.98101 | 109.61220 | 37342 ft | 470 kts | 347° |
| 2026-05-07 23:43 | 30.04639 | 109.60973 | 37338 ft | 470 kts | 347° |
| 2026-05-07 23:43 | 30.11170 | 109.60726 | 37339 ft | 469 kts | 347° |
| 2026-05-07 23:44 | 30.17732 | 109.60476 | 37346 ft | 471 kts | 347° |
| 2026-05-07 23:44 | 30.24277 | 109.60261 | 37336 ft | 471 kts | 348° |
| 2026-05-07 23:45 | 30.30842 | 109.60260 | 37350 ft | 479 kts | 353° |
| 2026-05-07 23:45 | 30.37457 | 109.60786 | 37349 ft | 478 kts | 353° |
| 2026-05-07 23:46 | 30.44099 | 109.61329 | 37345 ft | 479 kts | 353° |
| 2026-05-07 23:46 | 30.50753 | 109.61952 | 37345 ft | 479 kts | 354° |
| 2026-05-07 23:47 | 30.57402 | 109.62570 | 37339 ft | 480 kts | 353° |
| 2026-05-07 23:47 | 30.64062 | 109.63179 | 37335 ft | 479 kts | 353° |
| 2026-05-07 23:48 | 30.70712 | 109.63787 | 37332 ft | 479 kts | 353° |
| 2026-05-07 23:48 | 30.77364 | 109.64396 | 37333 ft | 479 kts | 353° |
| 2026-05-07 23:49 | 30.84021 | 109.65005 | 37332 ft | 480 kts | 353° |
| 2026-05-07 23:49 | 30.90691 | 109.65611 | 37337 ft | 480 kts | 353° |
| 2026-05-07 23:50 | 30.97350 | 109.66221 | 37334 ft | 480 kts | 353° |
| 2026-05-07 23:50 | 31.04019 | 109.66831 | 37331 ft | 481 kts | 353° |
| 2026-05-07 23:51 | 31.10662 | 109.67438 | 37338 ft | 482 kts | 354° |
| 2026-05-07 23:51 | 31.17352 | 109.68052 | 37341 ft | 482 kts | 354° |
| 2026-05-07 23:52 | 31.24036 | 109.68666 | 37345 ft | 482 kts | 354° |
| 2026-05-07 23:52 | 31.30720 | 109.69281 | 37348 ft | 481 kts | 354° |
| 2026-05-07 23:53 | 31.37409 | 109.69897 | 37350 ft | 482 kts | 354° |
| 2026-05-07 23:53 | 31.44090 | 109.70514 | 37355 ft | 482 kts | 354° |
| 2026-05-07 23:54 | 31.50785 | 109.71131 | 37361 ft | 481 kts | 354° |
| 2026-05-07 23:54 | 31.57407 | 109.71745 | 37357 ft | 480 kts | 354° |
| 2026-05-07 23:55 | 31.64089 | 109.72360 | 37355 ft | 481 kts | 354° |
| 2026-05-07 23:55 | 31.70750 | 109.72981 | 37350 ft | 476 kts | 354° |
| 2026-05-07 23:56 | 31.77369 | 109.73595 | 37359 ft | 480 kts | 354° |
| 2026-05-07 23:56 | 31.84047 | 109.74212 | 37352 ft | 482 kts | 354° |
| 2026-05-07 23:57 | 31.90723 | 109.74837 | 37347 ft | 480 kts | 354° |
| 2026-05-07 23:57 | 31.97327 | 109.75458 | 37347 ft | 478 kts | 354° |
| 2026-05-07 23:58 | 32.04011 | 109.76082 | 37350 ft | 480 kts | 354° |
| 2026-05-07 23:58 | 32.10611 | 109.76701 | 37355 ft | 476 kts | 354° |
| 2026-05-07 23:59 | 32.17272 | 109.77391 | 37346 ft | 486 kts | 358° |
| 2026-05-07 23:59 | 32.23935 | 109.79243 | 37346 ft | 500 kts | 9° |
| 2026-05-08 00:00 | 32.30404 | 109.82513 | 37339 ft | 510 kts | 16° |
| 2026-05-08 00:00 | 32.36840 | 109.86073 | 37347 ft | 509 kts | 15° |
| 2026-05-08 00:01 | 32.43270 | 109.89627 | 37361 ft | 510 kts | 16° |
| 2026-05-08 00:01 | 32.49696 | 109.93193 | 37345 ft | 509 kts | 16° |
| 2026-05-08 00:02 | 32.56116 | 109.96763 | 37353 ft | 510 kts | 16° |
| 2026-05-08 00:02 | 32.62523 | 110.00328 | 37348 ft | 509 kts | 16° |
| 2026-05-08 00:03 | 32.68928 | 110.03904 | 37338 ft | 507 kts | 16° |
| 2026-05-08 00:03 | 32.75275 | 110.07454 | 37343 ft | 509 kts | 16° |
| 2026-05-08 00:04 | 32.81678 | 110.11039 | 37375 ft | 509 kts | 16° |
| 2026-05-08 00:04 | 32.88056 | 110.14618 | 37347 ft | 504 kts | 17° |
| 2026-05-08 00:05 | 32.94414 | 110.18189 | 37348 ft | 505 kts | 16° |
| 2026-05-08 00:05 | 33.00779 | 110.21771 | 37347 ft | 506 kts | 16° |
| 2026-05-08 00:06 | 33.07102 | 110.25335 | 37347 ft | 505 kts | 17° |
| 2026-05-08 00:06 | 33.13442 | 110.28910 | 37350 ft | 504 kts | 16° |
| 2026-05-08 00:07 | 33.19806 | 110.32505 | 37352 ft | 503 kts | 17° |
| 2026-05-08 00:07 | 33.26152 | 110.36099 | 37356 ft | 505 kts | 17° |
| 2026-05-08 00:08 | 33.32466 | 110.39684 | 37354 ft | 500 kts | 17° |
| 2026-05-08 00:08 | 33.38741 | 110.43244 | 37360 ft | 502 kts | 17° |
| 2026-05-08 00:09 | 33.45049 | 110.46833 | 37355 ft | 501 kts | 17° |
| 2026-05-08 00:09 | 33.51342 | 110.50414 | 37385 ft | 501 kts | 17° |
| 2026-05-08 00:10 | 33.57602 | 110.53991 | 37369 ft | 502 kts | 17° |
| 2026-05-08 00:10 | 33.63942 | 110.57618 | 37365 ft | 501 kts | 17° |
| 2026-05-08 00:11 | 33.70231 | 110.61220 | 37365 ft | 501 kts | 17° |
| 2026-05-08 00:11 | 33.76475 | 110.64804 | 37366 ft | 499 kts | 17° |
| 2026-05-08 00:12 | 33.82739 | 110.68405 | 37362 ft | 499 kts | 17° |
| 2026-05-08 00:12 | 33.89008 | 110.72017 | 37359 ft | 498 kts | 17° |
| 2026-05-08 00:13 | 33.95270 | 110.75630 | 37387 ft | 498 kts | 17° |
| 2026-05-08 00:13 | 34.01480 | 110.79201 | 37358 ft | 496 kts | 17° |
| 2026-05-08 00:14 | 34.07703 | 110.82802 | 37348 ft | 494 kts | 17° |
| 2026-05-08 00:14 | 34.13901 | 110.86396 | 37345 ft | 495 kts | 18° |
| 2026-05-08 00:15 | 34.20126 | 110.90006 | 37353 ft | 496 kts | 18° |
| 2026-05-08 00:15 | 34.26351 | 110.93620 | 37354 ft | 496 kts | 18° |
| 2026-05-08 00:16 | 34.32533 | 110.97220 | 37352 ft | 496 kts | 17° |
| 2026-05-08 00:16 | 34.38727 | 111.00929 | 37350 ft | 502 kts | 23° |
| 2026-05-08 00:17 | 34.41621 | 111.03378 | 37358 ft | 513 kts | 33° |
| 2026-05-08 00:17 | 34.44202 | 111.06398 | 37355 ft | 522 kts | 43° |
| 2026-05-08 00:17 | 34.48321 | 111.13780 | 37347 ft | 531 kts | 53° |
| 2026-05-08 00:18 | 34.52177 | 111.21420 | 37354 ft | 530 kts | 53° |
| 2026-05-08 00:18 | 34.56048 | 111.29055 | 37357 ft | 531 kts | 53° |
| 2026-05-08 00:19 | 34.59259 | 111.35405 | 37359 ft | 530 kts | 53° |
| 2026-05-08 00:19 | 34.63727 | 111.44280 | 37360 ft | 531 kts | 53° |
| 2026-05-08 00:20 | 34.67571 | 111.51931 | 37357 ft | 531 kts | 53° |
| 2026-05-08 00:20 | 34.71412 | 111.59586 | 37356 ft | 531 kts | 53° |
| 2026-05-08 00:21 | 34.74603 | 111.65960 | 37357 ft | 530 kts | 53° |
| 2026-05-08 00:21 | 34.78434 | 111.73630 | 37351 ft | 530 kts | 53° |
| 2026-05-08 00:22 | 34.82262 | 111.81311 | 37352 ft | 530 kts | 53° |
| 2026-05-08 00:22 | 34.86083 | 111.88988 | 37356 ft | 530 kts | 53° |
| 2026-05-08 00:23 | 34.89909 | 111.96654 | 37355 ft | 530 kts | 53° |
| 2026-05-08 00:23 | 34.93770 | 112.04328 | 37378 ft | 530 kts | 53° |
| 2026-05-08 00:24 | 34.97620 | 112.11981 | 37360 ft | 530 kts | 53° |
| 2026-05-08 00:24 | 35.01438 | 112.19604 | 37353 ft | 530 kts | 53° |
| 2026-05-08 00:25 | 35.05282 | 112.27296 | 37351 ft | 529 kts | 53° |
| 2026-05-08 00:25 | 35.09106 | 112.34964 | 37357 ft | 529 kts | 53° |
| 2026-05-08 00:26 | 35.12932 | 112.42664 | 37365 ft | 530 kts | 53° |
| 2026-05-08 00:26 | 35.16753 | 112.50382 | 37358 ft | 530 kts | 53° |
| 2026-05-08 00:27 | 35.20556 | 112.58048 | 37355 ft | 530 kts | 53° |
| 2026-05-08 00:27 | 35.24415 | 112.65726 | 37366 ft | 530 kts | 52° |
| 2026-05-08 00:28 | 35.28297 | 112.73420 | 37355 ft | 530 kts | 52° |
| 2026-05-08 00:28 | 35.32137 | 112.81127 | 37348 ft | 531 kts | 52° |
| 2026-05-08 00:29 | 35.35985 | 112.88853 | 37361 ft | 531 kts | 52° |
| 2026-05-08 00:29 | 35.39838 | 112.96568 | 37359 ft | 531 kts | 52° |
| 2026-05-08 00:30 | 35.43652 | 113.04274 | 37355 ft | 532 kts | 53° |
| 2026-05-08 00:30 | 35.47501 | 113.12020 | 37371 ft | 533 kts | 52° |
| 2026-05-08 00:31 | 35.51359 | 113.19804 | 37359 ft | 534 kts | 52° |
| 2026-05-08 00:31 | 35.55206 | 113.27577 | 37362 ft | 534 kts | 52° |
| 2026-05-08 00:32 | 35.59065 | 113.35423 | 37368 ft | 534 kts | 53° |
| 2026-05-08 00:32 | 35.62923 | 113.43235 | 37350 ft | 535 kts | 52° |
| 2026-05-08 00:33 | 35.66828 | 113.50950 | 37339 ft | 535 kts | 52° |
| 2026-05-08 00:33 | 35.70750 | 113.58733 | 37364 ft | 535 kts | 52° |
| 2026-05-08 00:34 | 35.74688 | 113.66522 | 37351 ft | 534 kts | 52° |
| 2026-05-08 00:34 | 35.78624 | 113.74286 | 37345 ft | 534 kts | 51° |
| 2026-05-08 00:35 | 35.82527 | 113.82076 | 37330 ft | 534 kts | 52° |
| 2026-05-08 00:35 | 35.86422 | 113.89850 | 37324 ft | 534 kts | 51° |
| 2026-05-08 00:36 | 35.90297 | 113.97608 | 37331 ft | 534 kts | 52° |
| 2026-05-08 00:36 | 35.94192 | 114.05426 | 37326 ft | 534 kts | 51° |
| 2026-05-08 00:37 | 35.98080 | 114.13231 | 37312 ft | 533 kts | 51° |
| 2026-05-08 00:38 | 36.03903 | 114.24965 | 37313 ft | 534 kts | 51° |
| 2026-05-08 00:38 | 36.07770 | 114.32793 | 37294 ft | 534 kts | 51° |
| 2026-05-08 00:39 | 36.11642 | 114.40646 | 37314 ft | 534 kts | 51° |
| 2026-05-08 00:39 | 36.15524 | 114.48469 | 37309 ft | 530 kts | 47° |
| 2026-05-08 00:40 | 36.20035 | 114.55502 | 37315 ft | 522 kts | 41° |
| 2026-05-08 00:40 | 36.24736 | 114.62368 | 37309 ft | 522 kts | 41° |
| 2026-05-08 00:41 | 36.29473 | 114.69205 | 37283 ft | 519 kts | 37° |
| 2026-05-08 00:41 | 36.32123 | 114.72133 | 37105 ft | 501 kts | 26° |
| 2026-05-08 00:41 | 36.35039 | 114.74360 | 36589 ft | 485 kts | 15° |
| 2026-05-08 00:41 | 36.38108 | 114.76026 | 35839 ft | 479 kts | 11° |
| 2026-05-08 00:42 | 36.41215 | 114.77553 | 35025 ft | 482 kts | 12° |
| 2026-05-08 00:42 | 36.44337 | 114.79148 | 34253 ft | 487 kts | 14° |
| 2026-05-08 00:42 | 36.47448 | 114.80836 | 33654 ft | 490 kts | 15° |
| 2026-05-08 00:42 | 36.50525 | 114.82575 | 33327 ft | 492 kts | 16° |
| 2026-05-08 00:43 | 36.53682 | 114.84395 | 33056 ft | 494 kts | 16° |
| 2026-05-08 00:43 | 36.56758 | 114.86182 | 32803 ft | 494 kts | 16° |
| 2026-05-08 00:43 | 36.59868 | 114.87993 | 32548 ft | 493 kts | 16° |
| 2026-05-08 00:43 | 36.62976 | 114.89802 | 32296 ft | 493 kts | 17° |
| 2026-05-08 00:44 | 36.66070 | 114.91604 | 32072 ft | 492 kts | 16° |
| 2026-05-08 00:44 | 36.69181 | 114.93417 | 31750 ft | 490 kts | 16° |
| 2026-05-08 00:44 | 36.72250 | 114.95206 | 31384 ft | 485 kts | 16° |
| 2026-05-08 00:44 | 36.75292 | 114.96982 | 31021 ft | 480 kts | 16° |
| 2026-05-08 00:45 | 36.78301 | 114.98740 | 30650 ft | 475 kts | 16° |
| 2026-05-08 00:45 | 36.81286 | 115.00483 | 30304 ft | 470 kts | 16° |
| 2026-05-08 00:45 | 36.84229 | 115.02204 | 29930 ft | 465 kts | 15° |
| 2026-05-08 00:45 | 36.87147 | 115.03913 | 29542 ft | 459 kts | 15° |
| 2026-05-08 00:46 | 36.89982 | 115.05572 | 29440 ft | 456 kts | 15° |
| 2026-05-08 00:46 | 36.92881 | 115.07262 | 29331 ft | 459 kts | 16° |
| 2026-05-08 00:46 | 36.95768 | 115.08950 | 29198 ft | 457 kts | 16° |
| 2026-05-08 00:46 | 36.98627 | 115.10629 | 28785 ft | 453 kts | 16° |
| 2026-05-08 00:47 | 37.01474 | 115.12302 | 28408 ft | 449 kts | 16° |
| 2026-05-08 00:47 | 37.04295 | 115.13962 | 28306 ft | 447 kts | 16° |
| 2026-05-08 00:47 | 37.07105 | 115.15616 | 28179 ft | 446 kts | 16° |
| 2026-05-08 00:47 | 37.09911 | 115.17266 | 27779 ft | 445 kts | 16° |
| 2026-05-08 00:48 | 37.12706 | 115.18911 | 27319 ft | 442 kts | 17° |
| 2026-05-08 00:48 | 37.15470 | 115.20543 | 26851 ft | 436 kts | 17° |
| 2026-05-08 00:48 | 37.18206 | 115.22159 | 26410 ft | 433 kts | 17° |
| 2026-05-08 00:48 | 37.20923 | 115.23763 | 25963 ft | 430 kts | 18° |
| 2026-05-08 00:49 | 37.23613 | 115.25353 | 25554 ft | 427 kts | 18° |
| 2026-05-08 00:49 | 37.26299 | 115.26942 | 25205 ft | 424 kts | 18° |
| 2026-05-08 00:49 | 37.28958 | 115.28515 | 24858 ft | 422 kts | 18° |
| 2026-05-08 00:49 | 37.31582 | 115.30069 | 24507 ft | 420 kts | 19° |
| 2026-05-08 00:50 | 37.34252 | 115.31653 | 24156 ft | 418 kts | 19° |
| 2026-05-08 00:50 | 37.36877 | 115.33211 | 23826 ft | 416 kts | 19° |
| 2026-05-08 00:50 | 37.39448 | 115.34740 | 23435 ft | 414 kts | 19° |
| 2026-05-08 00:50 | 37.42043 | 115.36284 | 23049 ft | 411 kts | 19° |
| 2026-05-08 00:51 | 37.44612 | 115.37816 | 22919 ft | 408 kts | 19° |
| 2026-05-08 00:51 | 37.47191 | 115.39350 | 22821 ft | 410 kts | 19° |
| 2026-05-08 00:51 | 37.49760 | 115.40879 | 22776 ft | 409 kts | 19° |
| 2026-05-08 00:51 | 37.52335 | 115.42414 | 22777 ft | 409 kts | 19° |
| 2026-05-08 00:52 | 37.54912 | 115.43951 | 22769 ft | 409 kts | 19° |
| 2026-05-08 00:52 | 37.57489 | 115.45490 | 22771 ft | 409 kts | 19° |
| 2026-05-08 00:52 | 37.60065 | 115.47030 | 22773 ft | 409 kts | 19° |
| 2026-05-08 00:52 | 37.62634 | 115.48568 | 22777 ft | 408 kts | 19° |
| 2026-05-08 00:53 | 37.65208 | 115.50110 | 22770 ft | 408 kts | 19° |
| 2026-05-08 00:53 | 37.67770 | 115.51644 | 22770 ft | 409 kts | 19° |
| 2026-05-08 00:53 | 37.70317 | 115.53171 | 22771 ft | 409 kts | 19° |
| 2026-05-08 00:53 | 37.72911 | 115.54727 | 22770 ft | 409 kts | 19° |
| 2026-05-08 00:54 | 37.75448 | 115.56251 | 22770 ft | 409 kts | 19° |
| 2026-05-08 00:54 | 37.78058 | 115.57638 | 22769 ft | 403 kts | 12° |
| 2026-05-08 00:54 | 37.80743 | 115.58429 | 22786 ft | 395 kts | 2° |
| 2026-05-08 00:54 | 37.83460 | 115.58640 | 22693 ft | 387 kts | 353° |
| 2026-05-08 00:55 | 37.86131 | 115.58430 | 22528 ft | 385 kts | 351° |
| 2026-05-08 00:55 | 37.88831 | 115.58209 | 22329 ft | 396 kts | 351° |
| 2026-05-08 00:55 | 37.91642 | 115.57989 | 22118 ft | 410 kts | 352° |
| 2026-05-08 00:55 | 37.94491 | 115.57780 | 21905 ft | 408 kts | 352° |
| 2026-05-08 00:56 | 37.97321 | 115.57578 | 21695 ft | 407 kts | 352° |
| 2026-05-08 00:56 | 38.00149 | 115.57373 | 21489 ft | 406 kts | 352° |
| 2026-05-08 00:56 | 38.02964 | 115.57167 | 21346 ft | 405 kts | 352° |
| 2026-05-08 00:56 | 38.05771 | 115.56960 | 21220 ft | 404 kts | 352° |
| 2026-05-08 00:57 | 38.08580 | 115.56752 | 21099 ft | 404 kts | 352° |
| 2026-05-08 00:57 | 38.11387 | 115.56604 | 20969 ft | 404 kts | 354° |
| 2026-05-08 00:57 | 38.14198 | 115.56468 | 20842 ft | 403 kts | 353° |
| 2026-05-08 00:57 | 38.16965 | 115.56287 | 20717 ft | 402 kts | 352° |
| 2026-05-08 00:58 | 38.19787 | 115.56085 | 20601 ft | 401 kts | 352° |
| 2026-05-08 00:58 | 38.22579 | 115.55882 | 20466 ft | 401 kts | 353° |
| 2026-05-08 00:58 | 38.25377 | 115.55966 | 20276 ft | 405 kts | 2° |
| 2026-05-08 00:58 | 38.28124 | 115.56670 | 20079 ft | 410 kts | 11° |
| 2026-05-08 00:59 | 38.30801 | 115.57994 | 19884 ft | 415 kts | 21° |
| 2026-05-08 00:59 | 38.33377 | 115.59655 | 19697 ft | 414 kts | 21° |
| 2026-05-08 00:59 | 38.35954 | 115.61290 | 19502 ft | 413 kts | 21° |
| 2026-05-08 00:59 | 38.38526 | 115.62908 | 19274 ft | 411 kts | 21° |
| 2026-05-08 01:00 | 38.41054 | 115.64498 | 19046 ft | 400 kts | 21° |
| 2026-05-08 01:00 | 38.43504 | 115.66047 | 18820 ft | 383 kts | 21° |
| 2026-05-08 01:00 | 38.45837 | 115.67522 | 18595 ft | 366 kts | 21° |
| 2026-05-08 01:00 | 38.48078 | 115.68938 | 18334 ft | 352 kts | 21° |
| 2026-05-08 01:01 | 38.50264 | 115.70315 | 18064 ft | 350 kts | 21° |
| 2026-05-08 01:01 | 38.52423 | 115.71671 | 17907 ft | 350 kts | 21° |
| 2026-05-08 01:01 | 38.54608 | 115.73048 | 17846 ft | 350 kts | 21° |
| 2026-05-08 01:01 | 38.56787 | 115.74423 | 17848 ft | 350 kts | 21° |
| 2026-05-08 01:02 | 38.58967 | 115.75802 | 17863 ft | 350 kts | 21° |
| 2026-05-08 01:02 | 38.61155 | 115.77188 | 17853 ft | 350 kts | 21° |
| 2026-05-08 01:02 | 38.63335 | 115.78569 | 17851 ft | 347 kts | 21° |
| 2026-05-08 01:02 | 38.65484 | 115.79984 | 17852 ft | 350 kts | 25° |
| 2026-05-08 01:03 | 38.67516 | 115.81755 | 17852 ft | 355 kts | 33° |
| 2026-05-08 01:03 | 38.69395 | 115.83797 | 17764 ft | 356 kts | 35° |
| 2026-05-08 01:03 | 38.71284 | 115.85851 | 17501 ft | 353 kts | 35° |
| 2026-05-08 01:03 | 38.73158 | 115.87872 | 17236 ft | 350 kts | 35° |
| 2026-05-08 01:04 | 38.75010 | 115.89863 | 16965 ft | 347 kts | 34° |
| 2026-05-08 01:04 | 38.76822 | 115.91811 | 16722 ft | 346 kts | 34° |
| 2026-05-08 01:04 | 38.78674 | 115.93806 | 16458 ft | 343 kts | 34° |
| 2026-05-08 01:04 | 38.80493 | 115.95768 | 16220 ft | 341 kts | 34° |
| 2026-05-08 01:05 | 38.82306 | 115.97726 | 15974 ft | 339 kts | 34° |
| 2026-05-08 01:05 | 38.84104 | 115.99665 | 15881 ft | 338 kts | 34° |
| 2026-05-08 01:05 | 38.85903 | 116.01607 | 15849 ft | 338 kts | 34° |
| 2026-05-08 01:05 | 38.87707 | 116.03555 | 15851 ft | 339 kts | 34° |
| 2026-05-08 01:06 | 38.89509 | 116.05503 | 15851 ft | 339 kts | 34° |
| 2026-05-08 01:06 | 38.91306 | 116.07448 | 15850 ft | 339 kts | 34° |
| 2026-05-08 01:06 | 38.93113 | 116.09405 | 15851 ft | 339 kts | 34° |
| 2026-05-08 01:06 | 38.94916 | 116.11361 | 15862 ft | 339 kts | 34° |
| 2026-05-08 01:07 | 38.96702 | 116.13299 | 15851 ft | 339 kts | 34° |
| 2026-05-08 01:07 | 38.98505 | 116.15257 | 15850 ft | 339 kts | 34° |
| 2026-05-08 01:07 | 39.00283 | 116.17187 | 15847 ft | 338 kts | 34° |
| 2026-05-08 01:07 | 39.02203 | 116.18878 | 15857 ft | 330 kts | 20° |
| 2026-05-08 01:08 | 39.04376 | 116.19653 | 15857 ft | 321 kts | 1° |
| 2026-05-08 01:08 | 39.06575 | 116.19533 | 15818 ft | 315 kts | 350° |
| 2026-05-08 01:08 | 39.08751 | 116.19169 | 15585 ft | 315 kts | 350° |
| 2026-05-08 01:08 | 39.10924 | 116.18818 | 15251 ft | 315 kts | 350° |
| 2026-05-08 01:09 | 39.13102 | 116.18598 | 14792 ft | 314 kts | 0° |
| 2026-05-08 01:09 | 39.15217 | 116.19305 | 14383 ft | 319 kts | 20° |
| 2026-05-08 01:09 | 39.16516 | 116.20192 | 14108 ft | 318 kts | 22° |
| 2026-05-08 01:09 | 39.18437 | 116.21531 | 13633 ft | 310 kts | 22° |
| 2026-05-08 01:10 | 39.20312 | 116.22837 | 13160 ft | 302 kts | 22° |
| 2026-05-08 01:10 | 39.22142 | 116.24108 | 12666 ft | 296 kts | 22° |
| 2026-05-08 01:10 | 39.23931 | 116.25349 | 12205 ft | 289 kts | 22° |
| 2026-05-08 01:10 | 39.25689 | 116.26573 | 11754 ft | 283 kts | 22° |
| 2026-05-08 01:11 | 39.27398 | 116.27765 | 11301 ft | 276 kts | 22° |
| 2026-05-08 01:11 | 39.29086 | 116.28937 | 10856 ft | 275 kts | 22° |
| 2026-05-08 01:11 | 39.30757 | 116.30086 | 10428 ft | 275 kts | 22° |
| 2026-05-08 01:11 | 39.32437 | 116.31242 | 10089 ft | 270 kts | 22° |
| 2026-05-08 01:12 | 39.34108 | 116.32388 | 9986 ft | 275 kts | 22° |
| 2026-05-08 01:12 | 39.35811 | 116.33549 | 9722 ft | 275 kts | 22° |
| 2026-05-08 01:12 | 39.37507 | 116.34695 | 9465 ft | 274 kts | 22° |
| 2026-05-08 01:12 | 39.39199 | 116.35829 | 9203 ft | 273 kts | 22° |
| 2026-05-08 01:13 | 39.40893 | 116.36955 | 8945 ft | 273 kts | 22° |
| 2026-05-08 01:13 | 39.42588 | 116.38071 | 8687 ft | 272 kts | 22° |
| 2026-05-08 01:13 | 39.44231 | 116.39151 | 8427 ft | 260 kts | 22° |
| 2026-05-08 01:13 | 39.45857 | 116.40211 | 8177 ft | 264 kts | 22° |
| 2026-05-08 01:14 | 39.47478 | 116.41259 | 7928 ft | 263 kts | 22° |
| 2026-05-08 01:14 | 39.49105 | 116.42301 | 7694 ft | 260 kts | 22° |
| 2026-05-08 01:14 | 39.50705 | 116.43319 | 7454 ft | 250 kts | 22° |
| 2026-05-08 01:14 | 39.52233 | 116.44289 | 7197 ft | 240 kts | 22° |
| 2026-05-08 01:15 | 39.53728 | 116.45230 | 6965 ft | 243 kts | 22° |
| 2026-05-08 01:15 | 39.55258 | 116.46181 | 6709 ft | 240 kts | 22° |
| 2026-05-08 01:15 | 39.56770 | 116.47114 | 6463 ft | 241 kts | 22° |
| 2026-05-08 01:15 | 39.58276 | 116.48031 | 6211 ft | 240 kts | 22° |
| 2026-05-08 01:16 | 39.59788 | 116.48943 | 6009 ft | 239 kts | 22° |
| 2026-05-08 01:16 | 39.61303 | 116.49851 | 5921 ft | 241 kts | 22° |
| 2026-05-08 01:16 | 39.62820 | 116.50758 | 5894 ft | 240 kts | 22° |
| 2026-05-08 01:16 | 39.64339 | 116.51666 | 5893 ft | 241 kts | 22° |
| 2026-05-08 01:17 | 39.65862 | 116.52577 | 5895 ft | 240 kts | 22° |
| 2026-05-08 01:17 | 39.67343 | 116.53465 | 5883 ft | 226 kts | 22° |
| 2026-05-08 01:17 | 39.68738 | 116.54284 | 5696 ft | 218 kts | 20° |
| 2026-05-08 01:17 | 39.70149 | 116.55054 | 5379 ft | 220 kts | 22° |
| 2026-05-08 01:18 | 39.71536 | 116.55869 | 5053 ft | 217 kts | 22° |
| 2026-05-08 01:18 | 39.72894 | 116.56659 | 4729 ft | 215 kts | 22° |
| 2026-05-08 01:18 | 39.74265 | 116.57452 | 4382 ft | 214 kts | 23° |
| 2026-05-08 01:18 | 39.75617 | 116.58226 | 4129 ft | 213 kts | 21° |
| 2026-05-08 01:19 | 39.76975 | 116.58997 | 3817 ft | 212 kts | 22° |
| 2026-05-08 01:19 | 39.78381 | 116.59480 | 3546 ft | 209 kts | 2° |
| 2026-05-08 01:19 | 39.79841 | 116.59470 | 3403 ft | 205 kts | 359° |
| 2026-05-08 01:19 | 39.81197 | 116.59522 | 3378 ft | 189 kts | 1° |
| 2026-05-08 01:20 | 39.82511 | 116.59605 | 3118 ft | 191 kts | 2° |
| 2026-05-08 01:20 | 39.83832 | 116.59705 | 2875 ft | 191 kts | 2° |
| 2026-05-08 01:20 | 39.85149 | 116.59816 | 2605 ft | 190 kts | 2° |
| 2026-05-08 01:20 | 39.86458 | 116.59928 | 2358 ft | 188 kts | 3° |
| 2026-05-08 01:21 | 39.87751 | 116.60038 | 2119 ft | 186 kts | 2° |
| 2026-05-08 01:21 | 39.89018 | 116.60028 | 2064 ft | 189 kts | 355° |
| 2026-05-08 01:21 | 39.90329 | 116.59861 | 2000 ft | 183 kts | 352° |
| 2026-05-08 01:21 | 39.91613 | 116.59702 | 1995 ft | 188 kts | 353° |
| 2026-05-08 01:22 | 39.92879 | 116.59518 | 1970 ft | 175 kts | 351° |
| 2026-05-08 01:22 | 39.94011 | 116.59298 | 2041 ft | 164 kts | 348° |
| 2026-05-08 01:22 | 39.95172 | 116.59117 | 2000 ft | 170 kts | 355° |
| 2026-05-08 01:22 | 39.96306 | 116.59024 | 1991 ft | 160 kts | 356° |
| 2026-05-08 01:23 | 39.97357 | 116.58954 | 2019 ft | 147 kts | 355° |
| 2026-05-08 01:23 | 39.98373 | 116.58862 | 1886 ft | 157 kts | 353° |
| 2026-05-08 01:23 | 39.99425 | 116.58660 | 1695 ft | 149 kts | 348° |
| 2026-05-08 01:23 | 40.00430 | 116.58498 | 1479 ft | 143 kts | 354° |
| 2026-05-08 01:24 | 40.01398 | 116.58363 | 1307 ft | 146 kts | 351° |
| 2026-05-08 01:24 | 40.02388 | 116.58201 | 1113 ft | 146 kts | 353° |
| 2026-05-08 01:24 | 40.03407 | 116.58042 | 920 ft | 143 kts | 352° |
| 2026-05-08 01:24 | 40.04395 | 116.57874 | 720 ft | 145 kts | 353° |
| 2026-05-08 01:25 | 40.05382 | 116.57729 | 529 ft | 139 kts | 353° |
| 2026-05-08 01:25 | 40.06376 | 116.57572 | 364 ft | 144 kts | 353° |
| 2026-05-08 01:25 | 40.07356 | 116.57421 | 177 ft | 145 kts | 354° |
| 2026-05-08 01:25 | 40.08328 | 116.57280 | 128 ft | 124 kts | 353° |
| 2026-05-08 01:26 | 40.08982 | 116.57163 | 126 ft | 66 kts | 352° |
| 2026-05-08 01:26 | 40.09308 | 116.57111 | 127 ft | 25 kts | 353° |
| 2026-05-08 01:26 | 40.09477 | 116.57102 | 128 ft | 24 kts | 7° |
| 2026-05-08 01:26 | 40.09623 | 116.57160 | 128 ft | 4 kts | 21° |
| 2026-05-08 01:27 | 40.09631 | 116.57165 | 128 ft | 3 kts | 21° |
| 2026-05-08 01:27 | 40.09671 | 116.57185 | 126 ft | 9 kts | 23° |
| 2026-05-08 01:27 | 40.09689 | 116.57256 | 125 ft | 9 kts | 110° |
| 2026-05-08 01:27 | 40.09619 | 116.57289 | 126 ft | 13 kts | 172° |
| 2026-05-08 01:28 | 40.09509 | 116.57309 | 126 ft | 19 kts | 173° |
| 2026-05-08 01:28 | 40.09363 | 116.57331 | 127 ft | 23 kts | 173° |
| 2026-05-08 01:28 | 40.09186 | 116.57359 | 128 ft | 27 kts | 173° |
| 2026-05-08 01:28 | 40.09074 | 116.57377 | 127 ft | 18 kts | 173° |
| 2026-05-08 01:29 | 40.08932 | 116.57399 | 128 ft | 23 kts | 173° |
| 2026-05-08 01:29 | 40.08760 | 116.57425 | 127 ft | 27 kts | 173° |
| 2026-05-08 01:29 | 40.08631 | 116.57445 | 128 ft | 14 kts | 173° |
| 2026-05-08 01:29 | 40.08509 | 116.57466 | 126 ft | 20 kts | 173° |
| 2026-05-08 01:30 | 40.08362 | 116.57488 | 128 ft | 13 kts | 173° |
| 2026-05-08 01:30 | 40.08332 | 116.57493 | 128 ft | 9 kts | 173° |
| 2026-05-08 01:30 | 40.08297 | 116.57548 | 126 ft | 9 kts | 101° |
| 2026-05-08 01:30 | 40.08305 | 116.57638 | 129 ft | 12 kts | 83° |
| 2026-05-08 01:31 | 40.08318 | 116.57779 | 129 ft | 18 kts | 83° |
| 2026-05-08 01:31 | 40.08334 | 116.57948 | 130 ft | 19 kts | 83° |
| 2026-05-08 01:31 | 40.08350 | 116.58124 | 127 ft | 20 kts | 83° |
| 2026-05-08 01:31 | 40.08362 | 116.58256 | 129 ft | 15 kts | 83° |
| 2026-05-08 01:32 | 40.08374 | 116.58395 | 129 ft | 16 kts | 83° |
| 2026-05-08 01:32 | 40.08388 | 116.58547 | 130 ft | 18 kts | 83° |
| 2026-05-08 01:32 | 40.08403 | 116.58710 | 130 ft | 19 kts | 83° |
| 2026-05-08 01:32 | 40.08420 | 116.58884 | 129 ft | 20 kts | 83° |
| 2026-05-08 01:33 | 40.08434 | 116.59022 | 129 ft | 11 kts | 83° |
| 2026-05-08 01:33 | 40.08440 | 116.59093 | 126 ft | 1 kts | 83° |
| 2026-05-08 01:33 | 40.08435 | 116.59142 | 126 ft | 7 kts | 118° |
| 2026-05-08 01:33 | 40.08383 | 116.59162 | 126 ft | 9 kts | 173° |
| 2026-05-08 01:34 | 40.08314 | 116.59173 | 126 ft | 12 kts | 173° |
| 2026-05-08 01:34 | 40.08223 | 116.59187 | 126 ft | 15 kts | 173° |
| 2026-05-08 01:34 | 40.08116 | 116.59204 | 125 ft | 16 kts | 173° |
| 2026-05-08 01:34 | 40.07998 | 116.59222 | 127 ft | 18 kts | 173° |
| 2026-05-08 01:35 | 40.07885 | 116.59240 | 125 ft | 0 kts | 173° |
| 2026-05-08 01:35 | 40.07842 | 116.59247 | 127 ft | 18 kts | 173° |
| 2026-05-08 01:35 | 40.07752 | 116.59260 | 130 ft | 6 kts | 177° |
| 2026-05-08 01:35 | 40.07742 | 116.59250 | 129 ft | 1 kts | 213° |
| 2026-05-08 01:36 | 40.07744 | 116.59227 | 119 ft | 5 kts | 274° |
| 2026-05-08 01:36 | 40.07775 | 116.59165 | 126 ft | 9 kts | 319° |
| 2026-05-08 01:36 | 40.07835 | 116.59141 | 126 ft | 10 kts | 352° |
| 2026-05-08 01:36 | 40.07886 | 116.59116 | 126 ft | 2 kts | 309° |
| 2026-05-08 01:37 | 40.07893 | 116.59087 | 128 ft | 4 kts | 285° |
| 2026-05-08 01:37 | 40.07890 | 116.59040 | 125 ft | 6 kts | 263° |
| 2026-05-08 01:37 | 40.07887 | 116.59005 | 127 ft | 1 kts | 263° |
| 2026-05-08 01:37 | 40.07886 | 116.58988 | 128 ft | 2 kts | 263° |
| 2026-05-08 01:38 | 40.07885 | 116.58980 | 129 ft | 1 kts | 263° |
| 2026-05-08 01:38 | 40.07885 | 116.58979 | 129 ft | 0 kts | 263° |